createdAt,value
2019-03-25T00:02:58.126Z,101964.88
2019-03-25T00:06:10.287Z,101973.14
2019-03-25T00:07:14.682Z,101970.11
2019-03-25T00:16:55.749Z,101954.80
2019-03-25T00:19:03.790Z,101954.78
2019-03-25T00:21:11.838Z,101945.58
2019-03-25T00:23:20.565Z,101959.07
2019-03-25T00:25:28.672Z,101949.05
2019-03-25T00:26:33.389Z,101951.69
2019-03-25T00:27:37.878Z,101952.52
2019-03-25T00:29:47.060Z,101946.80
2019-03-25T00:30:51.736Z,101941.16
2019-03-25T00:35:07.169Z,101945.13
2019-03-25T00:36:11.559Z,101928.98
2019-03-25T00:40:26.825Z,101955.11
2019-03-25T00:44:42.546Z,101959.37
2019-03-25T00:51:05.994Z,101986.30
2019-03-25T00:56:25.836Z,101983.17
2019-03-25T00:57:30.503Z,101990.14
2019-03-25T01:07:04.980Z,101980.36
2019-03-25T01:10:16.803Z,101987.77
2019-03-25T01:12:24.864Z,101970.23
2019-03-25T01:15:37.898Z,101982.90
2019-03-25T01:17:45.900Z,101989.91
2019-03-25T01:23:04.770Z,101974.08
2019-03-25T01:25:12.759Z,101962.25
2019-03-25T01:26:17.177Z,101968.83
2019-03-25T01:29:29.484Z,101977.09
2019-03-25T01:30:33.995Z,101974.08
2019-03-25T01:35:53.795Z,101990.53
2019-03-25T01:43:21.040Z,101989.66
2019-03-25T01:44:25.497Z,101985.73
2019-03-25T01:47:37.873Z,101988.66
2019-03-25T01:48:43.205Z,101982.95
2019-03-25T01:50:51.218Z,101981.22
2019-03-25T01:51:55.637Z,101979.44
2019-03-25T01:56:11.420Z,101971.09
2019-03-25T01:59:23.017Z,101970.24
2019-03-25T02:01:32.144Z,101972.80
2019-03-25T02:02:36.522Z,101962.37
2019-03-25T02:03:40.905Z,101963.68
2019-03-25T02:06:52.548Z,101945.86
2019-03-25T02:11:10.913Z,101941.02
2019-03-25T02:14:22.595Z,101940.55
2019-03-25T02:16:30.575Z,101930.91
2019-03-25T02:19:42.189Z,101924.33
2019-03-25T02:23:58.180Z,101929.14
2019-03-25T02:30:21.784Z,101915.93
2019-03-25T02:31:26.185Z,101924.69
2019-03-25T02:34:37.773Z,101912.92
2019-03-25T02:35:42.289Z,101912.49
2019-03-25T02:37:50.302Z,101909.43
2019-03-25T02:38:54.687Z,101911.16
2019-03-25T02:44:14.195Z,101908.41
2019-03-25T02:45:18.560Z,101909.62
2019-03-25T02:46:23.005Z,101906.09
2019-03-25T02:49:34.787Z,101904.45
2019-03-25T02:50:39.523Z,101896.16
2019-03-25T02:54:55.010Z,101914.39
2019-03-25T02:57:03.009Z,101902.98
2019-03-25T03:01:36.726Z,101899.09
2019-03-25T03:04:48.913Z,101902.13
2019-03-25T03:08:00.518Z,101899.00
2019-03-25T03:10:11.636Z,101897.24
2019-03-25T03:19:46.763Z,101893.76
2019-03-25T03:21:56.002Z,101883.68
2019-03-25T03:23:00.417Z,101885.48
2019-03-25T03:26:12.411Z,101881.97
2019-03-25T03:32:37.748Z,101882.92
2019-03-25T03:34:46.373Z,101875.98
2019-03-25T03:35:50.999Z,101882.00
2019-03-25T03:37:59.069Z,101885.08
2019-03-25T03:39:04.199Z,101893.36
2019-03-25T03:40:08.897Z,101873.42
2019-03-25T03:41:13.327Z,101879.47
2019-03-25T03:42:17.725Z,101886.77
2019-03-25T03:43:22.148Z,101881.09
2019-03-25T03:45:30.145Z,101881.47
2019-03-25T03:46:34.545Z,101879.72
2019-03-25T03:48:42.529Z,101875.38
2019-03-25T03:50:50.555Z,101875.81
2019-03-25T03:52:58.649Z,101881.50
2019-03-25T03:56:13.581Z,101884.53
2019-03-25T03:57:17.318Z,101886.73
2019-03-25T03:59:28.407Z,101886.69
2019-03-25T04:12:14.751Z,101878.61
2019-03-25T04:14:22.854Z,101882.00
2019-03-25T04:16:33.404Z,101872.47
2019-03-25T04:17:37.865Z,101893.73
2019-03-25T04:19:45.905Z,101879.81
2019-03-25T04:20:50.334Z,101888.09
2019-03-25T04:22:58.423Z,101883.73
2019-03-25T04:25:06.777Z,101876.76
2019-03-25T04:27:16.264Z,101876.80
2019-03-25T04:28:20.776Z,101875.98
2019-03-25T04:29:25.510Z,101877.32
2019-03-25T04:31:33.613Z,101873.44
2019-03-25T04:34:46.201Z,101888.61
2019-03-25T04:35:51.487Z,101880.37
2019-03-25T04:36:56.174Z,101878.64
2019-03-25T04:41:14.118Z,101875.62
2019-03-25T04:43:22.109Z,101866.03
2019-03-25T04:44:26.516Z,101870.00
2019-03-25T04:48:42.512Z,101863.95
2019-03-25T04:49:46.924Z,101866.10
2019-03-25T04:52:59.539Z,101857.84
2019-03-25T04:55:07.649Z,101854.84
2019-03-25T04:57:15.661Z,101867.03
2019-03-25T05:01:40.045Z,101860.94
2019-03-25T05:02:44.453Z,101857.86
2019-03-25T05:08:03.333Z,101861.36
2019-03-25T05:13:30.410Z,101855.27
2019-03-25T05:18:50.397Z,101853.51
2019-03-25T05:30:33.374Z,101857.84
2019-03-25T05:31:37.779Z,101853.05
2019-03-25T05:33:46.493Z,101844.38
2019-03-25T05:39:09.053Z,101862.66
2019-03-25T05:41:17.053Z,101853.49
2019-03-25T05:44:30.072Z,101853.04
2019-03-25T05:48:45.361Z,101858.73
2019-03-25T05:50:53.309Z,101860.87
2019-03-25T05:54:04.886Z,101854.30
2019-03-25T05:55:09.351Z,101853.86
2019-03-25T05:57:18.323Z,101843.41
2019-03-25T06:03:41.208Z,101867.86
2019-03-25T06:05:49.151Z,101857.38
2019-03-25T06:06:53.533Z,101846.95
2019-03-25T06:18:37.877Z,101854.56
2019-03-25T06:23:57.339Z,101851.69
2019-03-25T06:27:13.981Z,101878.99
2019-03-25T06:29:18.987Z,101864.65
2019-03-25T06:33:35.829Z,101861.28
2019-03-25T06:34:40.203Z,101872.23
2019-03-25T06:35:44.569Z,101856.16
2019-03-25T06:36:48.936Z,101863.53
2019-03-25T06:42:08.219Z,101866.12
2019-03-25T06:44:16.184Z,101883.02
2019-03-25T06:46:24.190Z,101869.36
2019-03-25T06:52:47.092Z,101891.70
2019-03-25T06:53:51.510Z,101883.88
2019-03-25T06:59:10.394Z,101890.52
2019-03-25T07:00:16.309Z,101892.38
2019-03-25T07:09:49.555Z,101911.21
2019-03-25T07:16:12.927Z,101917.09
2019-03-25T07:18:20.915Z,101916.36
2019-03-25T07:20:28.949Z,101915.05
2019-03-25T07:21:33.354Z,101921.16
2019-03-25T07:22:37.878Z,101926.79
2019-03-25T07:25:49.564Z,101937.05
2019-03-25T07:29:01.217Z,101942.36
2019-03-25T07:30:07.577Z,101946.71
2019-03-25T07:31:12.013Z,101945.78
2019-03-25T07:36:31.106Z,101959.59
2019-03-25T07:38:39.096Z,101967.29
2019-03-25T07:41:51.707Z,101967.47
2019-03-25T07:42:56.117Z,101964.94
2019-03-25T07:49:21.316Z,101978.03
2019-03-25T07:50:25.717Z,101976.78
2019-03-25T07:52:33.747Z,101987.21
2019-03-25T07:53:38.110Z,102003.46
2019-03-25T07:56:51.659Z,102014.41
2019-03-25T07:59:00.179Z,102028.36
2019-03-25T08:00:18.855Z,102030.53
2019-03-25T08:05:43.272Z,102035.16
2019-03-25T08:07:51.332Z,102030.81
2019-03-25T08:12:08.705Z,102047.55
2019-03-25T08:15:20.576Z,102052.95
2019-03-25T08:19:37.043Z,102068.09
2019-03-25T08:20:41.508Z,102072.69
2019-03-25T08:29:11.460Z,102072.59
2019-03-25T08:32:23.058Z,102072.47
2019-03-25T08:35:34.691Z,102079.34
2019-03-25T08:36:40.332Z,102084.73
2019-03-25T08:40:55.560Z,102097.09
2019-03-25T08:41:59.986Z,102102.20
2019-03-25T08:46:15.253Z,102124.33
2019-03-25T08:47:19.716Z,102111.77
2019-03-25T08:48:24.079Z,102143.27
2019-03-25T08:49:29.498Z,102131.53
2019-03-25T08:55:52.784Z,102136.97
2019-03-25T08:56:57.181Z,102134.35
2019-03-25T08:58:11.578Z,102135.13
2019-03-25T09:05:30.417Z,102148.40
2019-03-25T09:11:52.859Z,102159.98
2019-03-25T09:12:57.307Z,102158.45
2019-03-25T09:14:01.714Z,102153.57
2019-03-25T09:15:08.157Z,102161.23
2019-03-25T09:17:17.065Z,102153.34
2019-03-25T09:18:22.048Z,102155.08
2019-03-25T09:20:31.077Z,102162.19
2019-03-25T09:23:43.046Z,102148.45
2019-03-25T09:26:55.048Z,102161.02
2019-03-25T09:30:10.969Z,102165.87
2019-03-25T09:31:16.470Z,102155.48
2019-03-25T09:33:24.448Z,102164.60
2019-03-25T09:34:28.852Z,102170.24
2019-03-25T09:36:36.977Z,102172.37
2019-03-25T09:43:00.456Z,102192.97
2019-03-25T09:46:13.411Z,102186.63
2019-03-25T09:48:21.494Z,102201.97
2019-03-25T09:50:29.671Z,102190.95
2019-03-25T09:52:38.849Z,102200.47
2019-03-25T09:54:47.244Z,102198.80
2019-03-25T09:56:55.481Z,102211.53
2019-03-25T10:02:17.881Z,102204.94
2019-03-25T10:05:29.576Z,102235.74
2019-03-25T10:07:37.592Z,102215.77
2019-03-25T10:08:42.010Z,102216.70
2019-03-25T10:10:50.061Z,102219.81
2019-03-25T10:11:54.704Z,102222.95
2019-03-25T10:12:59.102Z,102225.62
2019-03-25T10:17:16.757Z,102200.30
2019-03-25T10:21:32.361Z,102221.31
2019-03-25T10:22:36.989Z,102219.91
2019-03-25T10:24:45.056Z,102220.55
2019-03-25T10:32:16.025Z,102228.69
2019-03-25T10:34:24.428Z,102220.47
2019-03-25T10:35:29.039Z,102231.33
2019-03-25T10:37:38.094Z,102227.74
2019-03-25T10:38:42.691Z,102242.48
2019-03-25T10:39:47.104Z,102248.08
2019-03-25T10:46:11.649Z,102250.14
2019-03-25T10:47:16.055Z,102266.97
2019-03-25T10:48:20.505Z,102260.03
2019-03-25T10:49:25.175Z,102283.67
2019-03-25T10:50:29.873Z,102262.06
2019-03-25T10:55:48.746Z,102242.70
2019-03-25T11:02:14.971Z,102240.80
2019-03-25T11:03:19.406Z,102239.71
2019-03-25T11:05:27.484Z,102236.86
2019-03-25T11:13:58.348Z,102246.73
2019-03-25T11:18:16.505Z,102238.78
2019-03-25T11:19:21.151Z,102247.64
2019-03-25T11:21:29.209Z,102263.32
2019-03-25T11:23:37.226Z,102254.12
2019-03-25T11:24:41.606Z,102260.84
2019-03-25T11:25:46.008Z,102258.67
2019-03-25T11:26:50.407Z,102292.50
2019-03-25T11:29:04.410Z,102259.56
2019-03-25T11:31:12.014Z,102258.88
2019-03-25T11:32:16.404Z,102258.45
2019-03-25T11:34:25.017Z,102259.02
2019-03-25T11:37:36.670Z,102262.99
2019-03-25T11:39:44.781Z,102265.62
2019-03-25T11:40:49.237Z,102265.60
2019-03-25T11:41:53.780Z,102267.16
2019-03-25T11:45:07.996Z,102266.85
2019-03-25T11:46:12.499Z,102272.08
2019-03-25T11:48:20.607Z,102275.30
2019-03-25T11:49:25.025Z,102278.88
2019-03-25T11:51:38.485Z,102281.88
2019-03-25T11:55:55.679Z,102282.41
2019-03-25T11:58:03.691Z,102296.98
2019-03-25T11:59:08.081Z,102281.58
2019-03-25T12:00:12.900Z,102279.23
2019-03-25T12:04:28.156Z,102287.53
2019-03-25T12:12:58.882Z,102287.59
2019-03-25T12:18:19.302Z,102284.53
2019-03-25T12:20:27.295Z,102290.78
2019-03-25T12:22:35.585Z,102288.02
2019-03-25T12:24:43.610Z,102292.77
2019-03-25T12:26:51.683Z,102297.18
2019-03-25T12:27:56.080Z,102299.58
2019-03-25T12:32:14.008Z,102302.75
2019-03-25T12:34:22.981Z,102303.98
2019-03-25T12:35:27.705Z,102304.13
2019-03-25T12:39:42.954Z,102305.48
2019-03-25T12:40:47.465Z,102311.47
2019-03-25T12:41:52.903Z,102307.14
2019-03-25T12:44:00.928Z,102302.56
2019-03-25T12:46:12.322Z,102298.05
2019-03-25T12:49:24.627Z,102307.47
2019-03-25T12:52:36.409Z,102306.12
2019-03-25T12:54:44.418Z,102325.58
2019-03-25T12:56:52.534Z,102320.05
2019-03-25T13:00:06.216Z,102314.20
2019-03-25T13:05:30.943Z,102315.18
2019-03-25T13:06:35.365Z,102315.86
2019-03-25T13:07:39.767Z,102318.93
2019-03-25T13:10:52.276Z,102322.61
2019-03-25T13:14:05.572Z,102322.70
2019-03-25T13:18:20.873Z,102311.20
2019-03-25T13:19:25.389Z,102320.00
2019-03-25T13:22:37.008Z,102328.86
2019-03-25T13:23:41.418Z,102320.23
2019-03-25T13:30:06.805Z,102335.34
2019-03-25T13:31:11.226Z,102330.16
2019-03-25T13:33:19.220Z,102339.05
2019-03-25T13:35:27.221Z,102344.60
2019-03-25T13:37:35.187Z,102352.94
2019-03-25T13:39:43.250Z,102351.77
2019-03-25T13:41:51.541Z,102354.89
2019-03-25T13:42:55.941Z,102357.23
2019-03-25T13:47:12.801Z,102353.66
2019-03-25T13:48:17.282Z,102364.11
2019-03-25T13:53:36.094Z,102380.58
2019-03-25T13:58:54.910Z,102393.97
2019-03-25T14:02:06.604Z,102396.47
2019-03-25T14:07:25.464Z,102408.28
2019-03-25T14:08:29.828Z,102408.77
2019-03-25T14:11:41.441Z,102403.97
2019-03-25T14:12:45.817Z,102399.93
2019-03-25T14:13:50.301Z,102408.59
2019-03-25T14:15:58.399Z,102408.86
2019-03-25T14:17:02.827Z,102421.52
2019-03-25T14:18:07.304Z,102412.11
2019-03-25T14:20:15.259Z,102428.88
2019-03-25T14:21:19.667Z,102422.28
2019-03-25T14:29:49.321Z,102426.09
2019-03-25T14:37:15.521Z,102429.55
2019-03-25T14:38:19.938Z,102431.76
2019-03-25T14:39:24.336Z,102426.92
2019-03-25T14:40:28.767Z,102432.84
2019-03-25T14:41:33.265Z,102440.39
2019-03-25T14:44:44.844Z,102444.41
2019-03-25T14:45:49.237Z,102449.68
2019-03-25T14:57:33.384Z,102462.04
2019-03-25T15:00:45.029Z,102469.09
2019-03-25T15:01:49.442Z,102465.19
2019-03-25T15:08:11.971Z,102478.59
2019-03-25T15:14:35.260Z,102497.22
2019-03-25T15:16:43.288Z,102495.41
2019-03-25T15:17:47.750Z,102495.81
2019-03-25T15:18:52.146Z,102492.77
2019-03-25T15:23:07.373Z,102504.48
2019-03-25T15:24:11.771Z,102509.70
2019-03-25T15:25:16.202Z,102518.50
2019-03-25T15:26:20.624Z,102516.30
2019-03-25T15:29:32.268Z,102519.66
2019-03-25T15:33:47.636Z,102522.77
2019-03-25T15:35:55.620Z,102527.57
2019-03-25T15:40:13.302Z,102539.08
2019-03-25T15:42:21.518Z,102542.19
2019-03-25T15:44:30.519Z,102546.14
2019-03-25T15:47:45.819Z,102544.00
2019-03-25T15:53:03.541Z,102565.11
2019-03-25T15:55:11.835Z,102559.44
2019-03-25T15:56:18.046Z,102559.00
2019-03-25T16:00:33.289Z,102560.33
2019-03-25T16:02:41.367Z,102565.61
2019-03-25T16:03:45.773Z,102557.27
2019-03-25T16:04:50.168Z,102574.38
2019-03-25T16:05:54.557Z,102567.34
2019-03-25T16:06:59.556Z,102571.73
2019-03-25T16:08:03.961Z,102564.27
2019-03-25T16:09:08.552Z,102570.42
2019-03-25T16:13:26.962Z,102581.38
2019-03-25T16:14:31.721Z,102576.56
2019-03-25T16:22:00.754Z,102599.28
2019-03-25T16:23:06.271Z,102601.04
2019-03-25T16:26:21.032Z,102607.14
2019-03-25T16:29:32.660Z,102604.86
2019-03-25T16:31:40.669Z,102610.03
2019-03-25T16:33:48.945Z,102612.67
2019-03-25T16:38:04.204Z,102613.92
2019-03-25T16:46:35.877Z,102622.82
2019-03-25T16:48:43.873Z,102628.90
2019-03-25T16:50:51.965Z,102629.27
2019-03-25T16:51:56.477Z,102630.09
2019-03-25T16:54:05.552Z,102634.38
2019-03-25T16:58:21.531Z,102636.91
2019-03-25T16:59:26.862Z,102638.64
2019-03-25T17:04:45.644Z,102641.98
2019-03-25T17:07:57.323Z,102647.10
2019-03-25T17:09:01.747Z,102643.59
2019-03-25T17:10:07.870Z,102647.88
2019-03-25T17:12:16.011Z,102646.19
2019-03-25T17:14:24.316Z,102656.68
2019-03-25T17:18:39.709Z,102662.22
2019-03-25T17:19:44.108Z,102665.30
2019-03-25T17:23:59.327Z,102662.11
2019-03-25T17:25:05.537Z,102669.97
2019-03-25T17:28:17.236Z,102675.91
2019-03-25T17:29:21.854Z,102678.94
2019-03-25T17:31:29.883Z,102681.09
2019-03-25T17:32:34.370Z,102686.30
2019-03-25T17:35:45.915Z,102687.54
2019-03-25T17:37:53.918Z,102694.87
2019-03-25T17:41:05.541Z,102708.67
2019-03-25T17:43:13.779Z,102709.93
2019-03-25T17:44:19.144Z,102713.77
2019-03-25T17:45:23.509Z,102722.95
2019-03-25T17:48:35.372Z,102728.47
2019-03-25T17:54:02.033Z,102741.39
2019-03-25T17:58:17.756Z,102749.61
2019-03-25T18:01:49.971Z,102757.89
2019-03-25T18:02:54.390Z,102764.44
2019-03-25T18:06:06.417Z,102765.09
2019-03-25T18:07:10.820Z,102770.77
2019-03-25T18:08:15.845Z,102770.37
2019-03-25T18:15:42.339Z,102776.85
2019-03-25T18:16:46.964Z,102775.97
2019-03-25T18:17:51.381Z,102779.47
2019-03-25T18:20:03.053Z,102783.79
2019-03-25T18:22:11.284Z,102785.52
2019-03-25T18:23:15.636Z,102795.50
2019-03-25T18:26:27.234Z,102795.01
2019-03-25T18:28:35.465Z,102796.70
2019-03-25T18:29:40.769Z,102798.44
2019-03-25T18:30:45.159Z,102799.29
2019-03-25T18:31:49.548Z,102801.02
2019-03-25T18:32:53.937Z,102807.95
2019-03-25T18:36:05.975Z,102814.01
2019-03-25T18:45:40.486Z,102829.95
2019-03-25T18:50:59.356Z,102841.70
2019-03-25T18:53:07.395Z,102838.12
2019-03-25T18:54:12.031Z,102834.54
2019-03-25T18:59:32.840Z,102842.47
2019-03-25T19:01:41.108Z,102853.32
2019-03-25T19:03:49.358Z,102858.09
2019-03-25T19:07:02.414Z,102858.44
2019-03-25T19:12:25.554Z,102858.39
2019-03-25T19:15:37.165Z,102870.13
2019-03-25T19:16:41.771Z,102857.47
2019-03-25T19:27:19.575Z,102878.24
2019-03-25T19:29:27.834Z,102878.24
2019-03-25T19:31:36.134Z,102887.36
2019-03-25T19:33:44.440Z,102896.48
2019-03-25T19:38:16.415Z,102894.23
2019-03-25T19:39:20.893Z,102893.77
2019-03-25T19:40:25.579Z,102899.85
2019-03-25T19:41:32.531Z,102900.70
2019-03-25T19:45:48.037Z,102898.47
2019-03-25T19:46:52.634Z,102896.73
2019-03-25T19:47:57.260Z,102898.00
2019-03-25T19:49:01.743Z,102897.11
2019-03-25T19:50:07.489Z,102900.19
2019-03-25T19:56:30.415Z,102900.91
2019-03-25T19:58:38.633Z,102913.95
2019-03-25T20:00:46.834Z,102913.48
2019-03-25T20:02:54.833Z,102916.52
2019-03-25T20:03:59.490Z,102922.17
2019-03-25T20:06:10.025Z,102933.05
2019-03-25T20:10:31.634Z,102934.36
2019-03-25T20:12:40.591Z,102939.13
2019-03-25T20:13:44.991Z,102942.16
2019-03-25T20:19:04.695Z,102955.10
2019-03-25T20:22:17.358Z,102957.72
2019-03-25T20:24:25.377Z,102959.41
2019-03-25T20:27:37.056Z,102958.47
2019-03-25T20:28:41.730Z,102963.70
2019-03-25T20:29:46.236Z,102961.93
2019-03-25T20:30:51.002Z,102955.34
2019-03-25T20:31:55.618Z,102956.23
2019-03-25T20:34:10.942Z,102957.06
2019-03-25T20:36:14.101Z,102961.87
2019-03-25T20:37:19.486Z,102964.91
2019-03-25T20:42:40.199Z,102967.91
2019-03-25T20:43:44.977Z,102972.67
2019-03-25T20:46:56.689Z,102976.55
2019-03-25T20:48:01.343Z,102983.03
2019-03-25T20:51:13.510Z,102990.87
2019-03-25T20:54:25.486Z,103001.66
2019-03-25T20:55:30.015Z,102991.15
2019-03-25T20:56:34.483Z,102993.77
2019-03-25T21:00:51.628Z,103007.67
2019-03-25T21:01:57.268Z,103010.70
2019-03-25T21:05:09.200Z,103011.49
2019-03-25T21:08:21.194Z,103007.53
2019-03-25T21:09:27.384Z,103007.91
2019-03-25T21:10:32.574Z,103010.52
2019-03-25T21:11:37.035Z,103016.16
2019-03-25T21:12:41.719Z,103012.66
2019-03-25T21:16:57.171Z,103022.23
2019-03-25T21:22:17.483Z,103022.59
2019-03-25T21:27:37.289Z,103014.70
2019-03-25T21:28:41.832Z,103013.77
2019-03-25T21:30:50.625Z,103017.22
2019-03-25T21:31:55.340Z,103017.20
2019-03-25T21:32:59.762Z,103012.87
2019-03-25T21:35:08.407Z,103006.13
2019-03-25T21:36:14.948Z,103011.05
2019-03-25T21:37:20.210Z,103010.16
2019-03-25T21:40:33.079Z,103011.84
2019-03-25T21:41:37.776Z,103011.84
2019-03-25T21:44:49.355Z,103015.27
2019-03-25T21:46:57.403Z,103010.00
2019-03-25T21:48:02.010Z,103013.03
2019-03-25T21:59:45.685Z,103013.41
2019-03-25T22:02:57.364Z,103014.29
2019-03-25T22:04:02.742Z,103017.74
2019-03-25T22:07:14.601Z,103015.97
2019-03-25T22:08:19.013Z,103021.19
2019-03-25T22:12:35.648Z,103020.26
2019-03-25T22:15:47.366Z,103025.84
2019-03-25T22:16:51.963Z,103029.71
2019-03-25T22:22:14.902Z,103026.94
2019-03-25T22:23:20.636Z,103027.77
2019-03-25T22:30:47.804Z,103036.34
2019-03-25T22:32:55.821Z,103036.34
2019-03-25T22:34:00.236Z,103037.64
2019-03-25T22:38:17.148Z,103041.50
2019-03-25T22:39:21.561Z,103046.78
2019-03-25T22:40:25.977Z,103041.98
2019-03-25T22:43:37.565Z,103036.28
2019-03-25T22:46:49.978Z,103046.27
2019-03-25T22:50:01.663Z,103047.98
2019-03-25T22:56:24.329Z,103051.48
2019-03-25T22:57:28.697Z,103051.44
2019-03-25T22:59:36.824Z,103051.02
2019-03-25T23:00:41.253Z,103050.55
2019-03-25T23:01:45.761Z,103052.27
2019-03-25T23:02:50.170Z,103054.88
2019-03-25T23:06:02.990Z,103055.72
2019-03-25T23:08:11.013Z,103059.62
2019-03-25T23:10:18.999Z,103061.78
2019-03-25T23:13:30.590Z,103061.77
2019-03-25T23:18:50.230Z,103059.09
2019-03-25T23:20:58.213Z,103065.16
2019-03-25T23:24:09.863Z,103085.11
2019-03-25T23:32:42.171Z,103064.56
2019-03-25T23:34:50.173Z,103061.53
2019-03-25T23:36:58.136Z,103058.04
2019-03-25T23:38:02.523Z,103063.27
2019-03-25T23:41:14.574Z,103063.68
2019-03-25T23:43:23.503Z,103066.29
2019-03-25T23:46:36.007Z,103066.66
2019-03-25T23:48:44.734Z,103074.08
2019-03-25T23:54:03.600Z,103075.33
2019-03-25T23:56:12.621Z,103080.08
